Airfield :
LOGIN :

Register | Disclaimer

   EN    FR    IT 

 










Legend :    VFR   Marginal VFR   IFR   Intensive IFR   Very Intensive IFR
Visi :
Ceiling :
>= 8 km
>= 3000ft
5 to 8 km
1000 to 3000 ft
1500m to 5 km
500 to 1000 ft
800 to 1500m
200 to 500 ft
< 800m
< 200 ft
Symbols :   Thunderstorms  Fog  Heavy snow  Heavy precipitations  Wind > 20 kt
SIGMETs :     Misc.  Thunderstorms  Icing  Turbulence  Mountain Waves  Volcanic Ashes






- Airport Elevation : 13 ft
- IATA code : OST


EBOS - Oostend bruges Int.

CURRENT METAR :
  • 200020Z VRB02KT 9999 FEW020 08/07 Q1006 NOSIG

EXPIRED METARs :
  • 192350Z 20005KT 9999 FEW025 08/07 Q1006 NOSIG
  • 192320Z 21005KT 9999 FEW025 08/07 Q1006 NOSIG
  • 192250Z 19004KT 9999 FEW025 09/07 Q1006 NOSIG
  • 192220Z 19004KT 9999 FEW025 09/07 Q1006 NOSIG
  • 192150Z 19006KT 9999 FEW025 09/08 Q1006 NOSIG
  • 192120Z 20006KT 9999 FEW025 09/08 Q1006 NOSIG

TAF TAF EBOS
Valid from the 20 at 00:00 until the 21 at 06:00 UTC


192310Z 2000/2106 18004KT 8000 FEW040
TEMPO 2003/2007 4000 MIFG BR
PROB40
TEMPO 2003/2007 1200 BCFG
TEMPO 2010/2106 3500 RA -RADZ BKN008
BECMG 2013/2015 04010KT
PROB40 2104/2106 2500 DZRA BKN004



MET'MAP, your aeronautical weather chart ! - Copyright ORBIFLY December 2007 - Disclaimer

ORBIFLY MET'MAP TEAM :

Programming & Development : Alexandra Zaïnal
Concept & Development : Baudouin d'Aumeries
Co-Development & Prog : Marc-Olivier Méhu
Technical & hardware support : Manuel Goepfert

Contact : metmap@orbifly.com




SOURCES & CREDITS :

   NOAA